sensor_id;sensor_type;location;lat;lon;timestamp;P1;durP1;ratioP1;P2;durP2;ratioP2
6344;SDS011;3205;42.666;23.264;2022-08-19T00:00:31;5.03;;;4.53;;
6344;SDS011;3205;42.666;23.264;2022-08-19T00:02:58;9.43;;;5.13;;
6344;SDS011;3205;42.666;23.264;2022-08-19T00:05:24;5.65;;;4.95;;
6344;SDS011;3205;42.666;23.264;2022-08-19T00:07:52;6.60;;;4.57;;
6344;SDS011;3205;42.666;23.264;2022-08-19T00:10:19;7.57;;;5.13;;
6344;SDS011;3205;42.666;23.264;2022-08-19T00:12:47;5.55;;;5.03;;
6344;SDS011;3205;42.666;23.264;2022-08-19T00:15:16;4.82;;;4.32;;
6344;SDS011;3205;42.666;23.264;2022-08-19T00:17:44;5.93;;;5.38;;
6344;SDS011;3205;42.666;23.264;2022-08-19T00:20:12;6.55;;;4.65;;
6344;SDS011;3205;42.666;23.264;2022-08-19T00:22:41;5.25;;;4.75;;
6344;SDS011;3205;42.666;23.264;2022-08-19T00:25:09;6.22;;;4.60;;
6344;SDS011;3205;42.666;23.264;2022-08-19T00:27:38;4.97;;;4.57;;
6344;SDS011;3205;42.666;23.264;2022-08-19T00:30:06;5.20;;;4.80;;
6344;SDS011;3205;42.666;23.264;2022-08-19T00:32:34;6.05;;;5.28;;
6344;SDS011;3205;42.666;23.264;2022-08-19T00:35:00;5.60;;;5.10;;
6344;SDS011;3205;42.666;23.264;2022-08-19T00:37:27;6.30;;;4.72;;
6344;SDS011;3205;42.666;23.264;2022-08-19T00:39:54;4.95;;;4.45;;
6344;SDS011;3205;42.666;23.264;2022-08-19T00:42:21;7.05;;;4.95;;
6344;SDS011;3205;42.666;23.264;2022-08-19T00:44:48;5.68;;;5.18;;
6344;SDS011;3205;42.666;23.264;2022-08-19T00:47:15;4.63;;;4.18;;
6344;SDS011;3205;42.666;23.264;2022-08-19T00:49:45;4.68;;;4.20;;
6344;SDS011;3205;42.666;23.264;2022-08-19T00:52:16;5.35;;;4.65;;
6344;SDS011;3205;42.666;23.264;2022-08-19T00:54:45;6.53;;;4.53;;
6344;SDS011;3205;42.666;23.264;2022-08-19T00:57:13;5.57;;;5.07;;
6344;SDS011;3205;42.666;23.264;2022-08-19T00:59:42;6.38;;;4.57;;
6344;SDS011;3205;42.666;23.264;2022-08-19T01:02:10;5.93;;;4.90;;
6344;SDS011;3205;42.666;23.264;2022-08-19T01:04:38;6.20;;;4.60;;
6344;SDS011;3205;42.666;23.264;2022-08-19T01:07:07;5.45;;;4.93;;
6344;SDS011;3205;42.666;23.264;2022-08-19T01:09:36;6.13;;;5.35;;
6344;SDS011;3205;42.666;23.264;2022-08-19T01:12:03;7.35;;;4.90;;
6344;SDS011;3205;42.666;23.264;2022-08-19T01:14:30;5.78;;;5.22;;
6344;SDS011;3205;42.666;23.264;2022-08-19T01:16:57;7.47;;;4.97;;
6344;SDS011;3205;42.666;23.264;2022-08-19T01:19:26;5.68;;;5.07;;
6344;SDS011;3205;42.666;23.264;2022-08-19T01:21:55;7.45;;;4.65;;
6344;SDS011;3205;42.666;23.264;2022-08-19T01:24:23;5.50;;;4.15;;
6344;SDS011;3205;42.666;23.264;2022-08-19T01:26:50;7.47;;;5.07;;
6344;SDS011;3205;42.666;23.264;2022-08-19T01:29:16;5.75;;;4.97;;
6344;SDS011;3205;42.666;23.264;2022-08-19T01:31:43;5.63;;;5.22;;
6344;SDS011;3205;42.666;23.264;2022-08-19T01:34:09;5.93;;;4.90;;
6344;SDS011;3205;42.666;23.264;2022-08-19T01:36:37;5.60;;;5.03;;
6344;SDS011;3205;42.666;23.264;2022-08-19T01:39:09;5.20;;;4.80;;
6344;SDS011;3205;42.666;23.264;2022-08-19T01:41:37;6.18;;;4.55;;
6344;SDS011;3205;42.666;23.264;2022-08-19T01:44:04;4.97;;;4.60;;
6344;SDS011;3205;42.666;23.264;2022-08-19T01:46:30;5.60;;;4.88;;
6344;SDS011;3205;42.666;23.264;2022-08-19T01:48:57;5.15;;;4.75;;
6344;SDS011;3205;42.666;23.264;2022-08-19T01:51:23;8.90;;;5.85;;
6344;SDS011;3205;42.666;23.264;2022-08-19T01:53:50;10.27;;;5.85;;
6344;SDS011;3205;42.666;23.264;2022-08-19T01:56:17;7.50;;;5.43;;
6344;SDS011;3205;42.666;23.264;2022-08-19T01:58:47;6.45;;;5.80;;
6344;SDS011;3205;42.666;23.264;2022-08-19T02:01:15;6.30;;;5.10;;
6344;SDS011;3205;42.666;23.264;2022-08-19T02:03:42;7.10;;;4.80;;
6344;SDS011;3205;42.666;23.264;2022-08-19T02:06:09;9.52;;;5.50;;
6344;SDS011;3205;42.666;23.264;2022-08-19T02:08:36;6.70;;;6.05;;
6344;SDS011;3205;42.666;23.264;2022-08-19T02:11:03;5.25;;;4.75;;
6344;SDS011;3205;42.666;23.264;2022-08-19T02:13:30;7.60;;;5.15;;
6344;SDS011;3205;42.666;23.264;2022-08-19T02:15:59;6.18;;;5.55;;
6344;SDS011;3205;42.666;23.264;2022-08-19T02:18:25;6.47;;;5.88;;
6344;SDS011;3205;42.666;23.264;2022-08-19T02:20:53;8.00;;;5.38;;
6344;SDS011;3205;42.666;23.264;2022-08-19T02:23:20;9.85;;;5.53;;
6344;SDS011;3205;42.666;23.264;2022-08-19T02:25:48;7.00;;;5.68;;
6344;SDS011;3205;42.666;23.264;2022-08-19T02:28:15;7.90;;;6.07;;
6344;SDS011;3205;42.666;23.264;2022-08-19T02:30:42;7.40;;;5.43;;
6344;SDS011;3205;42.666;23.264;2022-08-19T02:33:10;5.85;;;5.43;;
6344;SDS011;3205;42.666;23.264;2022-08-19T02:35:40;6.00;;;5.57;;
6344;SDS011;3205;42.666;23.264;2022-08-19T02:38:08;6.63;;;5.57;;
6344;SDS011;3205;42.666;23.264;2022-08-19T02:40:55;8.77;;;5.90;;
6344;SDS011;3205;42.666;23.264;2022-08-19T02:43:24;7.40;;;5.65;;
6344;SDS011;3205;42.666;23.264;2022-08-19T02:45:51;6.40;;;5.45;;
6344;SDS011;3205;42.666;23.264;2022-08-19T02:48:22;6.32;;;5.72;;
6344;SDS011;3205;42.666;23.264;2022-08-19T02:50:50;5.82;;;5.32;;
6344;SDS011;3205;42.666;23.264;2022-08-19T02:53:20;11.05;;;5.95;;
6344;SDS011;3205;42.666;23.264;2022-08-19T02:55:47;7.32;;;6.20;;
6344;SDS011;3205;42.666;23.264;2022-08-19T02:58:14;8.80;;;5.78;;
6344;SDS011;3205;42.666;23.264;2022-08-19T03:00:42;7.80;;;6.40;;
6344;SDS011;3205;42.666;23.264;2022-08-19T03:03:10;8.30;;;5.90;;
6344;SDS011;3205;42.666;23.264;2022-08-19T03:05:38;9.52;;;6.28;;
6344;SDS011;3205;42.666;23.264;2022-08-19T03:08:05;9.30;;;5.82;;
6344;SDS011;3205;42.666;23.264;2022-08-19T03:10:31;10.75;;;6.72;;
6344;SDS011;3205;42.666;23.264;2022-08-19T03:12:58;8.95;;;6.22;;
6344;SDS011;3205;42.666;23.264;2022-08-19T03:15:26;9.13;;;6.43;;
6344;SDS011;3205;42.666;23.264;2022-08-19T03:17:53;10.80;;;6.38;;
6344;SDS011;3205;42.666;23.264;2022-08-19T03:20:19;10.57;;;6.78;;
6344;SDS011;3205;42.666;23.264;2022-08-19T03:22:48;11.18;;;6.82;;
6344;SDS011;3205;42.666;23.264;2022-08-19T03:25:15;7.03;;;6.15;;
6344;SDS011;3205;42.666;23.264;2022-08-19T03:27:42;7.05;;;6.30;;
6344;SDS011;3205;42.666;23.264;2022-08-19T03:30:09;10.15;;;6.45;;
6344;SDS011;3205;42.666;23.264;2022-08-19T03:32:36;8.18;;;6.53;;
6344;SDS011;3205;42.666;23.264;2022-08-19T03:35:03;21.23;;;7.13;;
6344;SDS011;3205;42.666;23.264;2022-08-19T03:37:31;9.93;;;7.68;;
6344;SDS011;3205;42.666;23.264;2022-08-19T03:39:59;33.05;;;7.60;;
6344;SDS011;3205;42.666;23.264;2022-08-19T03:42:28;23.20;;;7.07;;
6344;SDS011;3205;42.666;23.264;2022-08-19T03:44:55;16.35;;;7.07;;
6344;SDS011;3205;42.666;23.264;2022-08-19T03:47:21;12.55;;;6.32;;
6344;SDS011;3205;42.666;23.264;2022-08-19T03:49:48;11.95;;;6.88;;
6344;SDS011;3205;42.666;23.264;2022-08-19T03:52:15;8.30;;;6.22;;
6344;SDS011;3205;42.666;23.264;2022-08-19T03:54:41;8.90;;;6.50;;
6344;SDS011;3205;42.666;23.264;2022-08-19T03:57:11;9.45;;;6.57;;
6344;SDS011;3205;42.666;23.264;2022-08-19T03:59:38;17.95;;;7.38;;
6344;SDS011;3205;42.666;23.264;2022-08-19T04:02:06;14.13;;;7.22;;
6344;SDS011;3205;42.666;23.264;2022-08-19T04:04:34;16.83;;;7.63;;
6344;SDS011;3205;42.666;23.264;2022-08-19T04:07:02;19.05;;;8.10;;
6344;SDS011;3205;42.666;23.264;2022-08-19T04:09:29;24.58;;;7.60;;
6344;SDS011;3205;42.666;23.264;2022-08-19T04:11:56;18.42;;;6.95;;
6344;SDS011;3205;42.666;23.264;2022-08-19T04:14:28;15.45;;;7.05;;
6344;SDS011;3205;42.666;23.264;2022-08-19T04:16:55;13.82;;;6.80;;
6344;SDS011;3205;42.666;23.264;2022-08-19T04:19:22;9.82;;;6.53;;
6344;SDS011;3205;42.666;23.264;2022-08-19T04:21:49;13.32;;;7.60;;
6344;SDS011;3205;42.666;23.264;2022-08-19T04:24:16;10.70;;;6.57;;
6344;SDS011;3205;42.666;23.264;2022-08-19T04:26:44;7.82;;;6.22;;
6344;SDS011;3205;42.666;23.264;2022-08-19T04:29:12;7.90;;;6.60;;
6344;SDS011;3205;42.666;23.264;2022-08-19T04:31:40;14.25;;;6.75;;
6344;SDS011;3205;42.666;23.264;2022-08-19T04:34:09;13.20;;;6.47;;
6344;SDS011;3205;42.666;23.264;2022-08-19T04:36:37;12.10;;;6.85;;
6344;SDS011;3205;42.666;23.264;2022-08-19T04:39:07;9.13;;;6.80;;
6344;SDS011;3205;42.666;23.264;2022-08-19T04:41:34;8.77;;;6.28;;
6344;SDS011;3205;42.666;23.264;2022-08-19T04:44:18;10.30;;;6.97;;
6344;SDS011;3205;42.666;23.264;2022-08-19T04:46:47;12.68;;;6.80;;
6344;SDS011;3205;42.666;23.264;2022-08-19T04:49:14;11.43;;;5.90;;
6344;SDS011;3205;42.666;23.264;2022-08-19T04:51:42;13.55;;;6.40;;
6344;SDS011;3205;42.666;23.264;2022-08-19T04:54:10;12.98;;;6.63;;
6344;SDS011;3205;42.666;23.264;2022-08-19T04:56:38;10.15;;;6.55;;
6344;SDS011;3205;42.666;23.264;2022-08-19T04:59:05;7.15;;;5.82;;
6344;SDS011;3205;42.666;23.264;2022-08-19T05:01:33;14.10;;;6.43;;
6344;SDS011;3205;42.666;23.264;2022-08-19T05:04:04;6.80;;;5.93;;
6344;SDS011;3205;42.666;23.264;2022-08-19T05:06:31;16.80;;;6.70;;
6344;SDS011;3205;42.666;23.264;2022-08-19T05:08:59;10.73;;;6.68;;
6344;SDS011;3205;42.666;23.264;2022-08-19T05:11:26;13.65;;;5.97;;
6344;SDS011;3205;42.666;23.264;2022-08-19T05:13:53;9.32;;;6.50;;
6344;SDS011;3205;42.666;23.264;2022-08-19T05:16:21;13.65;;;6.72;;
6344;SDS011;3205;42.666;23.264;2022-08-19T05:18:48;12.45;;;6.47;;
6344;SDS011;3205;42.666;23.264;2022-08-19T05:21:33;9.50;;;6.03;;
6344;SDS011;3205;42.666;23.264;2022-08-19T05:24:20;12.88;;;6.95;;
6344;SDS011;3205;42.666;23.264;2022-08-19T05:26:48;16.80;;;7.18;;
6344;SDS011;3205;42.666;23.264;2022-08-19T05:29:18;10.98;;;7.90;;
6344;SDS011;3205;42.666;23.264;2022-08-19T05:31:46;13.32;;;7.90;;
6344;SDS011;3205;42.666;23.264;2022-08-19T05:34:14;16.83;;;7.88;;
6344;SDS011;3205;42.666;23.264;2022-08-19T05:36:43;13.75;;;7.55;;
6344;SDS011;3205;42.666;23.264;2022-08-19T05:39:10;15.27;;;7.47;;
6344;SDS011;3205;42.666;23.264;2022-08-19T05:41:40;10.50;;;7.13;;
6344;SDS011;3205;42.666;23.264;2022-08-19T05:44:07;14.98;;;6.65;;
6344;SDS011;3205;42.666;23.264;2022-08-19T05:46:34;17.60;;;6.88;;
6344;SDS011;3205;42.666;23.264;2022-08-19T05:49:03;14.15;;;7.45;;
6344;SDS011;3205;42.666;23.264;2022-08-19T05:51:31;13.07;;;7.28;;
6344;SDS011;3205;42.666;23.264;2022-08-19T05:54:01;9.40;;;7.20;;
6344;SDS011;3205;42.666;23.264;2022-08-19T05:56:28;12.65;;;7.32;;
6344;SDS011;3205;42.666;23.264;2022-08-19T05:58:55;10.35;;;7.60;;
6344;SDS011;3205;42.666;23.264;2022-08-19T06:01:22;11.25;;;6.40;;
6344;SDS011;3205;42.666;23.264;2022-08-19T06:03:49;11.05;;;7.03;;
6344;SDS011;3205;42.666;23.264;2022-08-19T06:06:16;18.80;;;7.47;;
6344;SDS011;3205;42.666;23.264;2022-08-19T06:08:43;14.80;;;7.00;;
6344;SDS011;3205;42.666;23.264;2022-08-19T06:11:19;16.73;;;7.40;;
6344;SDS011;3205;42.666;23.264;2022-08-19T06:13:47;12.80;;;7.07;;
6344;SDS011;3205;42.666;23.264;2022-08-19T06:16:15;20.60;;;6.85;;
6344;SDS011;3205;42.666;23.264;2022-08-19T06:18:47;17.58;;;7.32;;
6344;SDS011;3205;42.666;23.264;2022-08-19T06:21:14;23.17;;;7.75;;
6344;SDS011;3205;42.666;23.264;2022-08-19T06:23:40;13.48;;;7.68;;
6344;SDS011;3205;42.666;23.264;2022-08-19T06:26:10;9.85;;;7.35;;
6344;SDS011;3205;42.666;23.264;2022-08-19T06:28:38;15.15;;;7.15;;
6344;SDS011;3205;42.666;23.264;2022-08-19T06:31:07;16.15;;;8.27;;
6344;SDS011;3205;42.666;23.264;2022-08-19T06:33:34;10.30;;;7.95;;
6344;SDS011;3205;42.666;23.264;2022-08-19T06:36:01;13.57;;;8.55;;
6344;SDS011;3205;42.666;23.264;2022-08-19T06:38:29;14.68;;;8.18;;
6344;SDS011;3205;42.666;23.264;2022-08-19T06:41:00;14.45;;;9.25;;
6344;SDS011;3205;42.666;23.264;2022-08-19T06:43:26;20.38;;;9.57;;
6344;SDS011;3205;42.666;23.264;2022-08-19T06:45:54;19.15;;;9.85;;
6344;SDS011;3205;42.666;23.264;2022-08-19T06:48:21;12.80;;;8.43;;
6344;SDS011;3205;42.666;23.264;2022-08-19T06:50:47;14.93;;;9.85;;
6344;SDS011;3205;42.666;23.264;2022-08-19T06:53:16;16.73;;;8.05;;
6344;SDS011;3205;42.666;23.264;2022-08-19T06:55:44;23.02;;;8.90;;
6344;SDS011;3205;42.666;23.264;2022-08-19T06:58:10;12.40;;;8.35;;
6344;SDS011;3205;42.666;23.264;2022-08-19T07:00:37;11.85;;;8.02;;
6344;SDS011;3205;42.666;23.264;2022-08-19T07:03:05;13.93;;;7.43;;
6344;SDS011;3205;42.666;23.264;2022-08-19T07:05:37;13.07;;;7.63;;
6344;SDS011;3205;42.666;23.264;2022-08-19T07:08:04;9.75;;;6.30;;
6344;SDS011;3205;42.666;23.264;2022-08-19T07:10:32;9.63;;;7.15;;
6344;SDS011;3205;42.666;23.264;2022-08-19T07:13:00;17.92;;;6.97;;
6344;SDS011;3205;42.666;23.264;2022-08-19T07:15:26;10.50;;;7.22;;
6344;SDS011;3205;42.666;23.264;2022-08-19T07:17:53;12.80;;;7.38;;
6344;SDS011;3205;42.666;23.264;2022-08-19T07:20:23;13.07;;;8.40;;
6344;SDS011;3205;42.666;23.264;2022-08-19T07:22:50;10.75;;;7.03;;
6344;SDS011;3205;42.666;23.264;2022-08-19T07:25:16;13.27;;;7.88;;
6344;SDS011;3205;42.666;23.264;2022-08-19T07:27:45;16.35;;;7.10;;
6344;SDS011;3205;42.666;23.264;2022-08-19T07:30:14;15.63;;;6.78;;
6344;SDS011;3205;42.666;23.264;2022-08-19T07:32:42;9.18;;;7.72;;
6344;SDS011;3205;42.666;23.264;2022-08-19T07:35:09;11.00;;;7.07;;
6344;SDS011;3205;42.666;23.264;2022-08-19T07:37:37;10.88;;;7.60;;
6344;SDS011;3205;42.666;23.264;2022-08-19T07:40:05;12.02;;;7.22;;
6344;SDS011;3205;42.666;23.264;2022-08-19T07:42:33;9.68;;;7.28;;
6344;SDS011;3205;42.666;23.264;2022-08-19T07:44:59;16.38;;;7.32;;
6344;SDS011;3205;42.666;23.264;2022-08-19T07:47:26;12.27;;;7.25;;
6344;SDS011;3205;42.666;23.264;2022-08-19T07:49:53;8.18;;;6.47;;
6344;SDS011;3205;42.666;23.264;2022-08-19T07:52:19;6.75;;;6.13;;
6344;SDS011;3205;42.666;23.264;2022-08-19T07:54:48;14.07;;;5.70;;
6344;SDS011;3205;42.666;23.264;2022-08-19T07:57:16;10.45;;;6.97;;
6344;SDS011;3205;42.666;23.264;2022-08-19T07:59:44;11.48;;;6.72;;
6344;SDS011;3205;42.666;23.264;2022-08-19T08:02:10;8.05;;;6.35;;
6344;SDS011;3205;42.666;23.264;2022-08-19T08:04:37;9.43;;;6.38;;
6344;SDS011;3205;42.666;23.264;2022-08-19T08:07:21;11.88;;;6.25;;
6344;SDS011;3205;42.666;23.264;2022-08-19T08:10:07;8.63;;;5.88;;
6344;SDS011;3205;42.666;23.264;2022-08-19T08:12:36;8.02;;;6.28;;
6344;SDS011;3205;42.666;23.264;2022-08-19T08:15:07;9.38;;;5.38;;
6344;SDS011;3205;42.666;23.264;2022-08-19T08:17:34;10.82;;;5.85;;
6344;SDS011;3205;42.666;23.264;2022-08-19T08:20:02;12.63;;;5.88;;
6344;SDS011;3205;42.666;23.264;2022-08-19T08:22:31;8.20;;;5.80;;
6344;SDS011;3205;42.666;23.264;2022-08-19T08:25:19;9.63;;;6.00;;
6344;SDS011;3205;42.666;23.264;2022-08-19T08:27:46;7.65;;;5.72;;
6344;SDS011;3205;42.666;23.264;2022-08-19T08:30:14;11.38;;;5.47;;
6344;SDS011;3205;42.666;23.264;2022-08-19T08:32:41;6.75;;;5.10;;
6344;SDS011;3205;42.666;23.264;2022-08-19T08:35:08;10.05;;;4.82;;
6344;SDS011;3205;42.666;23.264;2022-08-19T08:37:35;6.53;;;5.22;;
6344;SDS011;3205;42.666;23.264;2022-08-19T08:40:03;6.72;;;4.38;;
6344;SDS011;3205;42.666;23.264;2022-08-19T08:42:34;5.03;;;4.15;;
6344;SDS011;3205;42.666;23.264;2022-08-19T08:45:03;6.07;;;4.43;;
6344;SDS011;3205;42.666;23.264;2022-08-19T08:47:30;13.52;;;4.88;;
6344;SDS011;3205;42.666;23.264;2022-08-19T08:50:00;7.35;;;4.20;;
6344;SDS011;3205;42.666;23.264;2022-08-19T08:52:29;9.95;;;4.68;;
6344;SDS011;3205;42.666;23.264;2022-08-19T08:54:59;5.20;;;4.80;;
6344;SDS011;3205;42.666;23.264;2022-08-19T08:57:28;6.93;;;4.70;;
6344;SDS011;3205;42.666;23.264;2022-08-19T09:00:00;4.60;;;3.88;;
6344;SDS011;3205;42.666;23.264;2022-08-19T09:02:29;4.72;;;4.32;;
6344;SDS011;3205;42.666;23.264;2022-08-19T09:04:56;4.38;;;4.07;;
6344;SDS011;3205;42.666;23.264;2022-08-19T09:07:26;7.60;;;3.80;;
6344;SDS011;3205;42.666;23.264;2022-08-19T09:09:55;10.10;;;4.15;;
6344;SDS011;3205;42.666;23.264;2022-08-19T09:12:24;10.88;;;4.32;;
6344;SDS011;3205;42.666;23.264;2022-08-19T09:14:52;3.38;;;3.17;;
6344;SDS011;3205;42.666;23.264;2022-08-19T09:17:22;5.13;;;3.70;;
6344;SDS011;3205;42.666;23.264;2022-08-19T09:19:57;5.18;;;4.57;;
6344;SDS011;3205;42.666;23.264;2022-08-19T09:22:24;7.55;;;4.10;;
6344;SDS011;3205;42.666;23.264;2022-08-19T09:24:51;5.47;;;4.22;;
6344;SDS011;3205;42.666;23.264;2022-08-19T09:27:20;5.32;;;3.83;;
6344;SDS011;3205;42.666;23.264;2022-08-19T09:29:49;6.32;;;3.35;;
6344;SDS011;3205;42.666;23.264;2022-08-19T09:32:15;6.88;;;3.47;;
6344;SDS011;3205;42.666;23.264;2022-08-19T09:34:43;6.97;;;3.55;;
6344;SDS011;3205;42.666;23.264;2022-08-19T09:37:10;5.20;;;3.50;;
6344;SDS011;3205;42.666;23.264;2022-08-19T09:39:37;10.18;;;4.10;;
6344;SDS011;3205;42.666;23.264;2022-08-19T09:42:05;7.35;;;3.83;;
6344;SDS011;3205;42.666;23.264;2022-08-19T09:44:36;8.23;;;3.70;;
6344;SDS011;3205;42.666;23.264;2022-08-19T09:47:03;4.55;;;3.50;;
6344;SDS011;3205;42.666;23.264;2022-08-19T09:49:30;4.13;;;3.67;;
6344;SDS011;3205;42.666;23.264;2022-08-19T09:51:58;5.65;;;3.78;;
6344;SDS011;3205;42.666;23.264;2022-08-19T09:54:26;3.63;;;3.33;;
6344;SDS011;3205;42.666;23.264;2022-08-19T09:56:54;3.67;;;3.38;;
6344;SDS011;3205;42.666;23.264;2022-08-19T09:59:20;10.77;;;3.67;;
6344;SDS011;3205;42.666;23.264;2022-08-19T10:01:47;6.82;;;3.65;;
6344;SDS011;3205;42.666;23.264;2022-08-19T10:04:13;3.75;;;3.47;;
6344;SDS011;3205;42.666;23.264;2022-08-19T10:06:40;4.07;;;3.25;;
6344;SDS011;3205;42.666;23.264;2022-08-19T10:09:09;9.80;;;3.67;;
6344;SDS011;3205;42.666;23.264;2022-08-19T10:11:36;4.20;;;3.05;;
6344;SDS011;3205;42.666;23.264;2022-08-19T10:14:06;4.80;;;3.05;;
6344;SDS011;3205;42.666;23.264;2022-08-19T10:16:33;8.15;;;3.50;;
6344;SDS011;3205;42.666;23.264;2022-08-19T10:18:59;7.28;;;3.83;;
6344;SDS011;3205;42.666;23.264;2022-08-19T10:21:27;4.10;;;3.55;;
6344;SDS011;3205;42.666;23.264;2022-08-19T10:23:57;5.30;;;3.33;;
6344;SDS011;3205;42.666;23.264;2022-08-19T10:26:25;4.45;;;3.30;;
6344;SDS011;3205;42.666;23.264;2022-08-19T10:28:52;3.92;;;3.47;;
6344;SDS011;3205;42.666;23.264;2022-08-19T10:31:20;5.13;;;3.50;;
6344;SDS011;3205;42.666;23.264;2022-08-19T10:33:48;4.82;;;3.35;;
6344;SDS011;3205;42.666;23.264;2022-08-19T10:36:15;9.50;;;4.05;;
6344;SDS011;3205;42.666;23.264;2022-08-19T10:38:44;6.97;;;3.80;;
6344;SDS011;3205;42.666;23.264;2022-08-19T10:41:12;8.82;;;3.88;;
6344;SDS011;3205;42.666;23.264;2022-08-19T10:43:40;4.05;;;3.25;;
6344;SDS011;3205;42.666;23.264;2022-08-19T10:46:07;8.45;;;4.80;;
6344;SDS011;3205;42.666;23.264;2022-08-19T10:48:35;3.83;;;3.53;;
6344;SDS011;3205;42.666;23.264;2022-08-19T10:51:04;6.20;;;4.10;;
6344;SDS011;3205;42.666;23.264;2022-08-19T10:53:49;3.92;;;3.40;;
6344;SDS011;3205;42.666;23.264;2022-08-19T10:56:16;5.18;;;4.18;;
6344;SDS011;3205;42.666;23.264;2022-08-19T10:59:02;4.65;;;3.95;;
6344;SDS011;3205;42.666;23.264;2022-08-19T11:01:29;9.82;;;4.40;;
6344;SDS011;3205;42.666;23.264;2022-08-19T11:03:56;8.27;;;4.55;;
6344;SDS011;3205;42.666;23.264;2022-08-19T11:06:23;6.03;;;4.30;;
6344;SDS011;3205;42.666;23.264;2022-08-19T11:08:50;4.82;;;4.05;;
6344;SDS011;3205;42.666;23.264;2022-08-19T11:11:16;6.80;;;4.05;;
6344;SDS011;3205;42.666;23.264;2022-08-19T11:13:43;7.47;;;4.03;;
6344;SDS011;3205;42.666;23.264;2022-08-19T11:16:13;5.15;;;4.40;;
6344;SDS011;3205;42.666;23.264;2022-08-19T11:18:41;6.00;;;4.50;;
6344;SDS011;3205;42.666;23.264;2022-08-19T11:21:09;5.30;;;3.88;;
6344;SDS011;3205;42.666;23.264;2022-08-19T11:23:36;5.07;;;4.55;;
6344;SDS011;3205;42.666;23.264;2022-08-19T11:26:03;5.10;;;3.72;;
6344;SDS011;3205;42.666;23.264;2022-08-19T11:28:29;6.68;;;4.43;;
6344;SDS011;3205;42.666;23.264;2022-08-19T11:30:56;5.00;;;4.38;;
6344;SDS011;3205;42.666;23.264;2022-08-19T11:33:24;5.00;;;4.35;;
6344;SDS011;3205;42.666;23.264;2022-08-19T11:35:53;4.50;;;4.07;;
6344;SDS011;3205;42.666;23.264;2022-08-19T11:38:20;9.75;;;4.47;;
6344;SDS011;3205;42.666;23.264;2022-08-19T11:40:53;5.15;;;4.65;;
6344;SDS011;3205;42.666;23.264;2022-08-19T11:43:21;5.05;;;4.32;;
6344;SDS011;3205;42.666;23.264;2022-08-19T11:45:48;9.15;;;5.32;;
6344;SDS011;3205;42.666;23.264;2022-08-19T11:48:14;4.68;;;4.28;;
6344;SDS011;3205;42.666;23.264;2022-08-19T11:50:42;5.70;;;4.05;;
6344;SDS011;3205;42.666;23.264;2022-08-19T11:53:09;6.00;;;4.47;;
6344;SDS011;3205;42.666;23.264;2022-08-19T11:55:36;6.53;;;4.30;;
6344;SDS011;3205;42.666;23.264;2022-08-19T11:58:05;5.40;;;4.45;;
6344;SDS011;3205;42.666;23.264;2022-08-19T12:00:33;7.47;;;4.35;;
6344;SDS011;3205;42.666;23.264;2022-08-19T12:03:02;4.70;;;3.97;;
6344;SDS011;3205;42.666;23.264;2022-08-19T12:05:28;7.07;;;4.40;;
6344;SDS011;3205;42.666;23.264;2022-08-19T12:07:58;6.60;;;4.20;;
6344;SDS011;3205;42.666;23.264;2022-08-19T12:10:24;6.88;;;4.18;;
6344;SDS011;3205;42.666;23.264;2022-08-19T12:12:52;7.78;;;4.60;;
6344;SDS011;3205;42.666;23.264;2022-08-19T12:15:19;6.97;;;4.35;;
6344;SDS011;3205;42.666;23.264;2022-08-19T12:17:45;8.38;;;4.30;;
6344;SDS011;3205;42.666;23.264;2022-08-19T12:20:12;10.23;;;4.63;;
6344;SDS011;3205;42.666;23.264;2022-08-19T12:22:40;6.53;;;5.32;;
6344;SDS011;3205;42.666;23.264;2022-08-19T12:25:09;9.88;;;4.57;;
6344;SDS011;3205;42.666;23.264;2022-08-19T12:27:35;8.77;;;4.50;;
6344;SDS011;3205;42.666;23.264;2022-08-19T12:30:04;5.53;;;4.65;;
6344;SDS011;3205;42.666;23.264;2022-08-19T12:32:31;11.93;;;5.43;;
6344;SDS011;3205;42.666;23.264;2022-08-19T12:34:57;5.00;;;4.47;;
6344;SDS011;3205;42.666;23.264;2022-08-19T12:37:24;8.95;;;4.60;;
6344;SDS011;3205;42.666;23.264;2022-08-19T12:39:50;11.93;;;4.75;;
6344;SDS011;3205;42.666;23.264;2022-08-19T12:42:18;7.68;;;5.30;;
6344;SDS011;3205;42.666;23.264;2022-08-19T12:44:47;8.15;;;4.40;;
6344;SDS011;3205;42.666;23.264;2022-08-19T12:47:14;9.20;;;4.70;;
6344;SDS011;3205;42.666;23.264;2022-08-19T12:49:42;9.35;;;4.60;;
6344;SDS011;3205;42.666;23.264;2022-08-19T12:52:09;8.25;;;4.93;;
6344;SDS011;3205;42.666;23.264;2022-08-19T12:54:36;7.93;;;4.82;;
6344;SDS011;3205;42.666;23.264;2022-08-19T12:57:04;10.27;;;4.40;;
6344;SDS011;3205;42.666;23.264;2022-08-19T12:59:34;5.93;;;4.38;;
6344;SDS011;3205;42.666;23.264;2022-08-19T13:02:01;6.60;;;4.97;;
6344;SDS011;3205;42.666;23.264;2022-08-19T13:04:29;5.32;;;4.82;;
6344;SDS011;3205;42.666;23.264;2022-08-19T13:06:57;8.63;;;4.35;;
6344;SDS011;3205;42.666;23.264;2022-08-19T13:09:24;6.13;;;4.82;;
6344;SDS011;3205;42.666;23.264;2022-08-19T13:11:50;7.13;;;4.18;;
6344;SDS011;3205;42.666;23.264;2022-08-19T13:14:17;9.23;;;5.43;;
6344;SDS011;3205;42.666;23.264;2022-08-19T13:16:45;11.68;;;4.85;;
6344;SDS011;3205;42.666;23.264;2022-08-19T13:19:11;5.18;;;4.35;;
6344;SDS011;3205;42.666;23.264;2022-08-19T13:21:38;7.25;;;4.13;;
6344;SDS011;3205;42.666;23.264;2022-08-19T13:24:05;8.63;;;3.95;;
6344;SDS011;3205;42.666;23.264;2022-08-19T13:26:31;5.43;;;4.15;;
6344;SDS011;3205;42.666;23.264;2022-08-19T13:28:58;12.73;;;3.85;;
6344;SDS011;3205;42.666;23.264;2022-08-19T13:31:42;11.32;;;4.47;;
6344;SDS011;3205;42.666;23.264;2022-08-19T13:34:33;12.35;;;4.50;;
6344;SDS011;3205;42.666;23.264;2022-08-19T13:37:02;6.85;;;4.40;;
6344;SDS011;3205;42.666;23.264;2022-08-19T13:39:29;4.25;;;3.85;;
6344;SDS011;3205;42.666;23.264;2022-08-19T13:41:55;5.53;;;4.18;;
6344;SDS011;3205;42.666;23.264;2022-08-19T13:44:22;5.95;;;4.20;;
6344;SDS011;3205;42.666;23.264;2022-08-19T13:46:49;4.65;;;4.15;;
6344;SDS011;3205;42.666;23.264;2022-08-19T13:49:18;5.32;;;4.22;;
6344;SDS011;3205;42.666;23.264;2022-08-19T13:51:46;4.53;;;4.10;;
6344;SDS011;3205;42.666;23.264;2022-08-19T13:54:13;10.05;;;4.30;;
6344;SDS011;3205;42.666;23.264;2022-08-19T13:56:40;8.93;;;4.55;;
6344;SDS011;3205;42.666;23.264;2022-08-19T13:59:08;4.45;;;4.13;;
6344;SDS011;3205;42.666;23.264;2022-08-19T14:01:34;7.97;;;4.75;;
6344;SDS011;3205;42.666;23.264;2022-08-19T14:04:01;4.93;;;3.72;;
6344;SDS011;3205;42.666;23.264;2022-08-19T14:06:27;7.35;;;4.30;;
6344;SDS011;3205;42.666;23.264;2022-08-19T14:08:55;7.38;;;4.40;;
6344;SDS011;3205;42.666;23.264;2022-08-19T14:11:23;6.47;;;3.90;;
6344;SDS011;3205;42.666;23.264;2022-08-19T14:13:50;9.13;;;4.35;;
6344;SDS011;3205;42.666;23.264;2022-08-19T14:16:16;9.57;;;4.78;;
6344;SDS011;3205;42.666;23.264;2022-08-19T14:18:44;8.55;;;4.63;;
6344;SDS011;3205;42.666;23.264;2022-08-19T14:21:14;6.80;;;4.82;;
6344;SDS011;3205;42.666;23.264;2022-08-19T14:23:42;9.50;;;4.35;;
6344;SDS011;3205;42.666;23.264;2022-08-19T14:26:10;7.78;;;4.85;;
6344;SDS011;3205;42.666;23.264;2022-08-19T14:28:38;5.95;;;4.20;;
6344;SDS011;3205;42.666;23.264;2022-08-19T14:31:06;7.38;;;4.35;;
6344;SDS011;3205;42.666;23.264;2022-08-19T14:33:34;4.72;;;4.22;;
6344;SDS011;3205;42.666;23.264;2022-08-19T14:36:01;7.63;;;4.38;;
6344;SDS011;3205;42.666;23.264;2022-08-19T14:38:28;10.68;;;4.82;;
6344;SDS011;3205;42.666;23.264;2022-08-19T14:40:56;13.18;;;4.63;;
6344;SDS011;3205;42.666;23.264;2022-08-19T14:43:32;6.63;;;4.50;;
6344;SDS011;3205;42.666;23.264;2022-08-19T14:45:58;5.10;;;4.18;;
6344;SDS011;3205;42.666;23.264;2022-08-19T14:48:25;10.23;;;5.05;;
6344;SDS011;3205;42.666;23.264;2022-08-19T14:50:53;6.95;;;4.50;;
6344;SDS011;3205;42.666;23.264;2022-08-19T14:53:20;10.90;;;4.32;;
6344;SDS011;3205;42.666;23.264;2022-08-19T14:55:46;7.90;;;4.72;;
6344;SDS011;3205;42.666;23.264;2022-08-19T14:58:14;5.00;;;4.50;;
6344;SDS011;3205;42.666;23.264;2022-08-19T15:00:42;7.07;;;4.38;;
6344;SDS011;3205;42.666;23.264;2022-08-19T15:03:09;9.45;;;4.78;;